»·PEaware :: ASA62 KTUS-KSLC

ASA62 :: KTUS-KSLC

FLIGHT INFORMATION

Flight Status: Arrived
Operator:
Alaska Airlines
More flights by this operator :: More flights under this callsign
Pilot: Steve F. (26981)
Aircraft: BOEING 737-800
(B738)
More flights by this aircraft type
Origin: KTUS Tucson Intl
United States
Destination: KSLC Salt Lake City Intl
United States
More flights between these airports :: More routes between these airports
Route: +QWENN5
File this flight plan on PilotEdge
Remarks:
Altitude:
(Current/Filed)
38,000ft
Speed:
(Current/Filed)
430kts
Departed: 30-Sep-20 02:26 PM
Arrived: 30-Sep-20 03:47 PM
Distance/Time
Traveled:
523nm/1:21
Distance/Time
To Go:
Arrived

Flight Plot

Page will automatically refresh every two minutes.

Flight plan parsing failed; only flown route is shown


Map Options




Map Legend


Flown Route
Filed Route
Departure Airport
Arrival Airport
Navaid (VOR, NDB)
Fix

Horizontal Profiles

Position Reports

Time Latitude Longitude Heading Altitude Ground
Speed
30-Sep-20 14:07 32.119164 -110.938558 40 2651ft 0kts
30-Sep-20 14:08 32.119164 -110.938558 40 2651ft 0kts
30-Sep-20 14:09 32.119164 -110.938558 40 2651ft 0kts
30-Sep-20 14:10 32.119164 -110.938558 40 2651ft 0kts
30-Sep-20 14:11 32.119164 -110.938558 40 2651ft 0kts
30-Sep-20 14:12 32.119164 -110.938558 40 2651ft 0kts
30-Sep-20 14:13 32.119164 -110.938558 40 2651ft 0kts
30-Sep-20 14:14 32.119086 -110.938638 44 2651ft 2kts
30-Sep-20 14:15 32.118924 -110.939362 104 2651ft 0kts
30-Sep-20 14:16 32.118924 -110.939361 104 2651ft 0kts
30-Sep-20 14:17 32.118924 -110.939359 104 2651ft 0kts
30-Sep-20 14:18 32.118923 -110.939357 104 2651ft 0kts
30-Sep-20 14:19 32.118923 -110.939355 104 2651ft 0kts
30-Sep-20 14:20 32.118121 -110.939493 219 2651ft 10kts
30-Sep-20 14:21 32.114562 -110.935933 134 2651ft 24kts
30-Sep-20 14:22 32.109895 -110.930433 135 2651ft 22kts
30-Sep-20 14:23 32.105307 -110.925004 135 2651ft 23kts
30-Sep-20 14:24 32.102416 -110.922720 211 2651ft 8kts
30-Sep-20 14:25 32.113424 -110.936221 315 2651ft 151kts
30-Sep-20 14:26 32.152735 -110.982011 313 4734ft 227kts
30-Sep-20 14:27 32.203075 -111.043660 316 6651ft 282kts
30-Sep-20 14:28 32.270531 -111.092542 336 9411ft 294kts
30-Sep-20 14:29 32.346339 -111.135409 334 11761ft 325kts
30-Sep-20 14:30 32.436161 -111.186766 334 13114ft 379kts
30-Sep-20 14:31 32.533295 -111.242145 334 15479ft 396kts
30-Sep-20 14:32 32.634868 -111.299869 333 17606ft 413kts
30-Sep-20 14:33 32.740242 -111.359893 333 19590ft 427kts
30-Sep-20 14:34 32.848649 -111.421992 333 21409ft 439kts
30-Sep-20 14:35 32.959560 -111.488241 326 22949ft 450kts
30-Sep-20 14:36 33.056587 -111.581393 317 23009ft 447kts
30-Sep-20 14:37 33.150275 -111.678395 317 23004ft 446kts
30-Sep-20 14:38 33.244343 -111.774973 317 22995ft 445kts
30-Sep-20 14:39 33.338221 -111.871902 317 22987ft 445kts
30-Sep-20 14:40 33.431361 -111.957072 335 22970ft 448kts
30-Sep-20 14:41 33.554584 -111.979654 355 23157ft 452kts
30-Sep-20 14:42 33.679538 -111.988751 355 25064ft 452kts
30-Sep-20 14:43 33.806591 -111.998187 355 26538ft 461kts
30-Sep-20 14:44 33.935641 -112.007836 355 27885ft 469kts
30-Sep-20 14:45 34.066979 -112.017719 355 29102ft 477kts
30-Sep-20 14:46 34.200552 -112.027817 355 30446ft 479kts
30-Sep-20 14:47 34.332666 -112.037840 355 32081ft 473kts
30-Sep-20 14:48 34.463460 -112.047806 355 33628ft 468kts
30-Sep-20 14:49 34.592894 -112.057676 355 35128ft 461kts
30-Sep-20 14:50 34.719946 -112.067404 355 36509ft 455kts
30-Sep-20 14:51 34.845894 -112.077080 355 37743ft 451kts
30-Sep-20 14:52 34.970773 -112.086702 355 38309ft 451kts
30-Sep-20 14:53 35.095423 -112.096337 355 38346ft 446kts
30-Sep-20 14:54 35.219477 -112.105956 355 38386ft 446kts
30-Sep-20 14:55 35.343395 -112.115593 355 38401ft 445kts
30-Sep-20 14:56 35.466841 -112.125222 354 38405ft 444kts
30-Sep-20 14:57 35.590284 -112.134885 354 38411ft 443kts
30-Sep-20 14:58 35.713390 -112.144546 354 38419ft 444kts
30-Sep-20 14:59 35.836683 -112.154253 354 38425ft 443kts
30-Sep-20 15:00 35.960037 -112.163998 354 38429ft 443kts
30-Sep-20 15:01 36.083173 -112.173752 354 38426ft 443kts
30-Sep-20 15:02 36.206052 -112.183520 354 38415ft 443kts
30-Sep-20 15:04 36.329435 -112.193355 354 38399ft 443kts
30-Sep-20 15:05 36.452349 -112.203191 354 38372ft 443kts
30-Sep-20 15:06 36.575731 -112.213086 354 38347ft 444kts
30-Sep-20 15:07 36.698920 -112.223004 354 38330ft 444kts
30-Sep-20 15:08 36.822053 -112.232945 354 38320ft 444kts
30-Sep-20 15:09 36.945339 -112.242932 354 38323ft 444kts
30-Sep-20 15:10 37.068957 -112.252985 354 38355ft 444kts
30-Sep-20 15:11 37.192425 -112.263060 354 38376ft 444kts
30-Sep-20 15:12 37.315687 -112.273133 354 38401ft 444kts
30-Sep-20 15:13 37.438970 -112.283230 354 38432ft 444kts
30-Sep-20 15:14 37.562524 -112.293416 354 38463ft 444kts
30-Sep-20 15:15 37.685719 -112.302379 359 38484ft 445kts
30-Sep-20 15:16 37.809593 -112.287473 4 38487ft 446kts
30-Sep-20 15:17 37.932907 -112.270480 4 38473ft 446kts
30-Sep-20 15:18 38.056738 -112.253407 4 38452ft 446kts
30-Sep-20 15:19 38.180106 -112.236397 4 38430ft 446kts
30-Sep-20 15:20 38.303535 -112.219290 4 38408ft 446kts
30-Sep-20 15:20 38.406573 -112.204954 4 38112ft 448kts
30-Sep-20 15:22 38.550512 -112.184896 4 35592ft 446kts
30-Sep-20 15:22 38.653467 -112.170452 4 33509ft 447kts
30-Sep-20 15:23 38.777583 -112.153062 5 31014ft 452kts
30-Sep-20 15:25 38.920610 -112.133277 5 28166ft 457kts
30-Sep-20 15:26 39.046215 -112.115908 5 25663ft 443kts
30-Sep-20 15:26 39.146812 -112.101889 5 23576ft 429kts
30-Sep-20 15:27 39.263437 -112.085578 5 21076ft 414kts
30-Sep-20 15:28 39.375900 -112.069677 5 19024ft 401kts
30-Sep-20 15:29 39.485909 -112.054066 5 17400ft 392kts
30-Sep-20 15:30 39.593232 -112.038752 5 15813ft 383kts
30-Sep-20 15:31 39.698558 -112.023809 5 15007ft 379kts
30-Sep-20 15:32 39.803305 -112.008806 5 15011ft 379kts
30-Sep-20 15:33 39.908333 -111.993706 5 15016ft 379kts
30-Sep-20 15:34 40.012327 -111.979261 5 13732ft 369kts
30-Sep-20 15:35 40.113265 -111.965252 5 11536ft 361kts
30-Sep-20 15:36 40.207429 -111.952200 5 11021ft 321kts
30-Sep-20 15:37 40.291477 -111.939014 5 11018ft 288kts
30-Sep-20 15:38 40.370463 -111.930242 4 11018ft 272kts
30-Sep-20 15:39 40.440447 -111.934511 354 11049ft 240kts
30-Sep-20 15:40 40.507448 -111.942233 354 10131ft 235kts
30-Sep-20 15:41 40.570965 -111.949551 354 8856ft 226kts
30-Sep-20 15:42 40.632360 -111.958077 353 7572ft 210kts
30-Sep-20 15:43 40.686086 -111.962884 355 6485ft 173kts
30-Sep-20 15:44 40.731958 -111.968152 355 5070ft 158kts
30-Sep-20 15:45 40.775957 -111.973203 353 4249ft 157kts
30-Sep-20 15:46 40.795053 -111.976280 327 4235ft 13kts
30-Sep-20 15:47 40.795147 -111.977619 174 4235ft 15kts
30-Sep-20 15:48 40.789797 -111.977815 236 4235ft 10kts
30-Sep-20 15:49 40.789071 -111.978320 194 4235ft 0kts

Navigation Log

Ident Type
Flight plan parsing failed, navigation log unavailable